createdAt,value
2019-04-23T00:02:14.257Z,99464.25
2019-04-23T00:05:02.469Z,99455.70
2019-04-23T00:10:33.215Z,99459.14
2019-04-23T00:13:30.348Z,99457.00
2019-04-23T00:18:56.082Z,99450.02
2019-04-23T00:22:05.471Z,99443.25
2019-04-23T00:27:50.123Z,99433.08
2019-04-23T00:30:43.997Z,99429.45
2019-04-23T00:33:25.571Z,99425.95
2019-04-23T00:36:12.363Z,99422.27
2019-04-23T00:38:55.826Z,99423.51
2019-04-23T00:42:10.337Z,99415.81
2019-04-23T00:44:45.935Z,99412.27
2019-04-23T00:47:32.980Z,99415.39
2019-04-23T00:50:24.046Z,99415.16
2019-04-23T00:53:05.886Z,99407.52
2019-04-23T00:56:04.139Z,99414.64
2019-04-23T00:58:55.239Z,99409.78
2019-04-23T01:01:41.210Z,99402.41
2019-04-23T01:04:19.001Z,99400.30
2019-04-23T01:07:07.565Z,99401.09
2019-04-23T01:10:08.782Z,99391.79
2019-04-23T01:12:51.659Z,99392.13
2019-04-23T01:15:41.097Z,99385.44
2019-04-23T01:18:45.910Z,99382.08
2019-04-23T01:21:01.543Z,99381.80
2019-04-23T01:24:14.118Z,99376.35
2019-04-23T01:27:46.113Z,99376.13
2019-04-23T01:30:19.859Z,99372.98
2019-04-23T01:33:10.863Z,99376.10
2019-04-23T01:36:16.249Z,99365.70
2019-04-23T01:38:55.967Z,99373.97
2019-04-23T01:41:50.791Z,99361.14
2019-04-23T01:44:38.662Z,99360.41
2019-04-23T01:47:19.979Z,99356.17
2019-04-23T01:53:00.805Z,99356.78
2019-04-23T01:55:49.794Z,99350.30
2019-04-23T01:58:41.054Z,99342.34
2019-04-23T02:01:19.164Z,99340.33
2019-04-23T02:06:59.287Z,99335.51
2019-04-23T02:09:52.796Z,99329.03
2019-04-23T02:12:34.454Z,99332.44
2019-04-23T02:15:26.547Z,99328.58
2019-04-23T02:18:13.694Z,99328.61
2019-04-23T02:20:59.572Z,99329.11
2019-04-23T02:23:57.081Z,99323.12
2019-04-23T02:27:05.260Z,99327.42
2019-04-23T02:29:51.276Z,99328.05
2019-04-23T02:32:29.641Z,99331.27
2019-04-23T02:38:10.245Z,99324.94
2019-04-23T02:41:04.706Z,99325.31
2019-04-23T02:43:40.366Z,99321.81
2019-04-23T02:46:20.963Z,99323.67
2019-04-23T02:52:12.578Z,99320.87
2019-04-23T02:57:47.648Z,99304.45
2019-04-23T03:03:25.165Z,99305.58
2019-04-23T03:09:00.457Z,99300.94
2019-04-23T03:11:52.225Z,99308.60
2019-04-23T03:14:56.061Z,99307.80
2019-04-23T03:17:36.576Z,99305.33
2019-04-23T03:23:25.129Z,99292.19
2019-04-23T03:29:19.955Z,99285.02
2019-04-23T03:40:21.480Z,99281.73
2019-04-23T03:48:41.931Z,99275.26
2019-04-23T03:51:26.069Z,99275.88
2019-04-23T03:54:26.306Z,99276.28
2019-04-23T03:57:13.365Z,99272.84
2019-04-23T04:05:36.052Z,99274.09
2019-04-23T04:08:17.969Z,99273.41
2019-04-23T04:11:10.830Z,99268.13
2019-04-23T04:14:01.140Z,99265.70
2019-04-23T04:16:51.628Z,99271.91
2019-04-23T04:28:03.575Z,99270.00
2019-04-23T04:30:54.397Z,99269.41
2019-04-23T04:39:08.063Z,99262.81
2019-04-23T04:41:56.947Z,99266.16
2019-04-23T04:50:15.418Z,99250.03
2019-04-23T04:53:22.838Z,99252.13
2019-04-23T04:56:07.628Z,99252.45
2019-04-23T04:58:54.049Z,99250.81
2019-04-23T05:01:29.590Z,99243.97
2019-04-23T05:04:33.132Z,99245.28
2019-04-23T05:12:46.857Z,99252.03
2019-04-23T05:15:37.319Z,99274.44
2019-04-23T05:21:20.393Z,99247.73
2019-04-23T05:24:06.791Z,99241.13
2019-04-23T05:26:38.753Z,99245.75
2019-04-23T05:29:41.435Z,99242.63
2019-04-23T05:32:29.081Z,99249.38
2019-04-23T05:35:20.328Z,99248.41
2019-04-23T05:41:03.972Z,99252.66
2019-04-23T05:43:40.841Z,99241.14
2019-04-23T05:46:37.702Z,99235.58
2019-04-23T05:49:11.064Z,99240.03
2019-04-23T05:52:04.028Z,99216.03
2019-04-23T05:54:56.315Z,99222.89
2019-04-23T05:57:39.166Z,99228.23
2019-04-23T06:00:34.743Z,99232.52
2019-04-23T06:03:16.283Z,99221.47
2019-04-23T06:06:12.657Z,99211.23
2019-04-23T06:08:53.151Z,99205.19
2019-04-23T06:11:56.980Z,99209.00
2019-04-23T06:14:30.791Z,99211.88
2019-04-23T06:17:15.259Z,99192.87
2019-04-23T06:28:29.838Z,99209.26
2019-04-23T06:34:12.518Z,99200.78
2019-04-23T06:36:55.527Z,99189.93
2019-04-23T06:39:41.506Z,99180.94
2019-04-23T06:42:30.747Z,99181.69
2019-04-23T06:45:19.309Z,99187.22
2019-04-23T06:48:10.622Z,99169.59
2019-04-23T06:51:07.854Z,99168.03
2019-04-23T06:53:43.131Z,99152.20
2019-04-23T06:56:37.507Z,99148.63
2019-04-23T07:02:13.552Z,99173.69
2019-04-23T07:10:40.301Z,99157.61
2019-04-23T07:13:21.189Z,99160.80
2019-04-23T07:16:10.987Z,99144.13
2019-04-23T07:19:04.627Z,99165.32
2019-04-23T07:21:50.823Z,99146.39
2019-04-23T07:24:39.809Z,99172.16
2019-04-23T07:27:37.848Z,99165.50
2019-04-23T07:30:13.645Z,99139.29
2019-04-23T07:32:58.715Z,99143.80
2019-04-23T07:35:52.238Z,99120.97
2019-04-23T07:39:02.588Z,99124.12
2019-04-23T07:45:24.049Z,99117.59
2019-04-23T07:48:19.214Z,99118.43
2019-04-23T07:51:20.946Z,99111.89
2019-04-23T07:53:53.452Z,99109.37
2019-04-23T07:56:43.062Z,99114.44
2019-04-23T07:59:37.188Z,99102.75
2019-04-23T08:02:21.950Z,99094.98
2019-04-23T08:05:25.173Z,99082.90
2019-04-23T08:07:58.820Z,99091.24
2019-04-23T08:10:56.853Z,99111.69
2019-04-23T08:13:39.857Z,99082.64
2019-04-23T08:16:28.190Z,99094.45
2019-04-23T08:19:25.308Z,99076.78
2019-04-23T08:21:58.339Z,99093.27
2019-04-23T08:25:26.439Z,99095.38
2019-04-23T08:28:09.750Z,99083.33
2019-04-23T08:30:46.525Z,99074.36
2019-04-23T08:33:40.153Z,99064.15
2019-04-23T08:36:27.295Z,99055.06
2019-04-23T08:39:18.273Z,99068.57
2019-04-23T08:42:21.674Z,99058.80
2019-04-23T08:45:28.716Z,99044.12
2019-04-23T08:48:18.211Z,99038.70
2019-04-23T08:50:54.651Z,99040.97
2019-04-23T08:53:40.975Z,99032.97
2019-04-23T08:56:40.671Z,99031.50
2019-04-23T08:59:36.847Z,99050.61
2019-04-23T09:05:00.025Z,99027.75
2019-04-23T09:07:54.118Z,99013.35
2019-04-23T09:10:37.459Z,99018.41
2019-04-23T09:16:08.873Z,99004.03
2019-04-23T09:19:03.937Z,99032.40
2019-04-23T09:21:59.200Z,99013.38
2019-04-23T09:24:44.810Z,99006.50
2019-04-23T09:27:28.855Z,98999.88
2019-04-23T09:30:14.757Z,98987.19
2019-04-23T09:33:26.341Z,98976.53
2019-04-23T09:36:18.431Z,98980.09
2019-04-23T09:39:12.906Z,98963.78
2019-04-23T09:42:04.441Z,98978.77
2019-04-23T09:45:18.884Z,98962.11
2019-04-23T09:48:04.370Z,98976.74
2019-04-23T09:50:54.796Z,98981.05
2019-04-23T09:53:41.164Z,98962.25
2019-04-23T09:56:37.768Z,98959.16
2019-04-23T10:02:01.549Z,98969.77
2019-04-23T10:04:48.731Z,98946.69
2019-04-23T10:07:30.010Z,98963.03
2019-04-23T10:10:08.280Z,98957.44
2019-04-23T10:12:55.762Z,98972.04
2019-04-23T10:15:45.796Z,98943.44
2019-04-23T10:18:31.012Z,98953.73
2019-04-23T10:21:19.366Z,98938.95
2019-04-23T10:24:07.505Z,98942.91
2019-04-23T10:26:53.981Z,98926.24
2019-04-23T10:29:41.720Z,98931.98
2019-04-23T10:32:29.755Z,98922.37
2019-04-23T10:35:27.330Z,98919.39
2019-04-23T10:38:10.367Z,98906.91
2019-04-23T10:40:54.152Z,98907.34
2019-04-23T10:43:44.568Z,98914.98
2019-04-23T10:47:17.780Z,98906.23
2019-04-23T10:50:26.050Z,98918.92
2019-04-23T10:53:26.604Z,98903.58
2019-04-23T10:56:10.140Z,98895.03
2019-04-23T10:58:54.994Z,98879.10
2019-04-23T11:01:43.464Z,98890.52
2019-04-23T11:10:08.671Z,98884.86
2019-04-23T11:13:09.300Z,98851.36
2019-04-23T11:16:21.600Z,98876.19
2019-04-23T11:18:53.573Z,98864.02
2019-04-23T11:21:34.150Z,98863.41
2019-04-23T11:24:33.915Z,98851.37
2019-04-23T11:27:10.134Z,98849.52
2019-04-23T11:30:01.808Z,98858.66
2019-04-23T11:32:56.758Z,98856.23
2019-04-23T11:35:39.942Z,98838.98
2019-04-23T11:38:44.500Z,98866.41
2019-04-23T11:41:09.656Z,98854.31
2019-04-23T11:43:58.343Z,98842.87
2019-04-23T11:50:56.017Z,98865.41
2019-04-23T11:52:30.083Z,98850.23
2019-04-23T11:55:17.676Z,98836.20
2019-04-23T11:58:08.746Z,98848.32
2019-04-23T12:01:24.455Z,98828.95
2019-04-23T12:07:21.378Z,98840.06
2019-04-23T12:10:31.665Z,98837.00
2019-04-23T12:13:20.851Z,98839.18
2019-04-23T12:16:00.577Z,98831.19
2019-04-23T12:24:53.311Z,98824.74
2019-04-23T12:27:30.554Z,98847.13
2019-04-23T12:30:01.547Z,98825.20
2019-04-23T12:32:57.206Z,98819.09
2019-04-23T12:35:32.531Z,98812.59
2019-04-23T12:38:25.493Z,98813.53
2019-04-23T12:41:24.509Z,98860.55
2019-04-23T12:44:10.935Z,98810.73
2019-04-23T12:46:57.496Z,98840.44
2019-04-23T12:50:13.678Z,98819.11
2019-04-23T12:52:36.445Z,98803.47
2019-04-23T12:55:23.419Z,98789.70
2019-04-23T13:00:46.032Z,98827.41
2019-04-23T13:03:41.547Z,98796.01
2019-04-23T13:06:27.634Z,98794.22
2019-04-23T13:09:33.142Z,98793.41
2019-04-23T13:12:17.297Z,98774.02
2019-04-23T13:14:57.356Z,98767.45
2019-04-23T13:20:32.245Z,98775.48
2019-04-23T13:23:22.095Z,98784.13
2019-04-23T13:26:04.258Z,98780.59
2019-04-23T13:29:07.619Z,98762.79
2019-04-23T13:31:49.918Z,98763.15
2019-04-23T13:37:38.652Z,98757.43
2019-04-23T13:40:17.867Z,98758.69
2019-04-23T13:48:36.599Z,98765.29
2019-04-23T13:54:29.861Z,98748.86
2019-04-23T13:59:56.238Z,98745.09
2019-04-23T14:05:49.490Z,98732.42
2019-04-23T14:14:25.476Z,98745.13
2019-04-23T14:17:17.492Z,98735.62
2019-04-23T14:20:03.822Z,98777.30
2019-04-23T14:23:08.257Z,98723.44
2019-04-23T14:25:45.393Z,98723.61
2019-04-23T14:36:55.639Z,98741.23
2019-04-23T14:39:32.027Z,98731.09
2019-04-23T14:42:33.371Z,98715.42
2019-04-23T14:45:45.176Z,98721.75
2019-04-23T14:51:02.527Z,98726.73
2019-04-23T14:53:41.031Z,98710.05
2019-04-23T14:56:29.445Z,98715.95
2019-04-23T14:59:11.003Z,98715.27
2019-04-23T15:02:18.400Z,98711.86
2019-04-23T15:04:57.582Z,98694.77
2019-04-23T15:07:46.658Z,98694.91
2019-04-23T15:10:41.099Z,98697.70
2019-04-23T15:13:22.963Z,98701.27
2019-04-23T15:22:04.776Z,98673.91
2019-04-23T15:25:14.014Z,98699.57
2019-04-23T15:28:03.408Z,98688.35
2019-04-23T15:30:07.002Z,98678.02
2019-04-23T15:33:27.220Z,98672.01
2019-04-23T15:36:12.933Z,98684.23
2019-04-23T15:38:53.432Z,98682.83
2019-04-23T15:47:10.203Z,98669.55
2019-04-23T15:49:59.492Z,98668.89
2019-04-23T15:52:51.447Z,98684.23
2019-04-23T15:55:33.887Z,98655.47
2019-04-23T15:58:26.315Z,98670.21
2019-04-23T16:03:39.877Z,98678.08
2019-04-23T16:06:30.161Z,98673.27
2019-04-23T16:09:46.175Z,98680.01
2019-04-23T16:12:31.577Z,98678.89
2019-04-23T16:15:37.330Z,98679.81
2019-04-23T16:18:33.414Z,98671.73
2019-04-23T16:21:10.207Z,98672.76
2019-04-23T16:24:00.822Z,98667.80
2019-04-23T16:26:50.365Z,98685.28
2019-04-23T16:29:48.872Z,98668.23
2019-04-23T16:32:28.394Z,98680.03
2019-04-23T16:35:18.216Z,98676.41
2019-04-23T16:41:15.498Z,98680.70
2019-04-23T16:44:14.278Z,98674.66
2019-04-23T16:46:56.288Z,98674.97
2019-04-23T16:49:51.063Z,98676.30
2019-04-23T16:55:27.056Z,98698.47
2019-04-23T16:58:21.486Z,98693.88
2019-04-23T17:01:03.658Z,98676.75
2019-04-23T17:03:49.796Z,98674.19
2019-04-23T17:06:29.356Z,98681.75
2019-04-23T17:09:34.131Z,98677.44
2019-04-23T17:12:10.406Z,98673.22
2019-04-23T17:15:03.082Z,98683.59
2019-04-23T17:17:45.152Z,98687.60
2019-04-23T17:20:39.825Z,98684.41
2019-04-23T17:26:13.486Z,98692.39
2019-04-23T17:31:45.368Z,98678.10
2019-04-23T17:34:47.223Z,98680.73
2019-04-23T17:37:33.195Z,98687.55
2019-04-23T17:40:46.689Z,98681.19
2019-04-23T17:43:33.289Z,98682.56
2019-04-23T17:46:24.782Z,98682.80
2019-04-23T17:49:13.135Z,98682.40
2019-04-23T17:51:56.057Z,98692.44
2019-04-23T17:54:51.780Z,98683.28
2019-04-23T18:00:25.499Z,98692.78
2019-04-23T18:03:11.134Z,98688.18
2019-04-23T18:08:53.992Z,98682.84
2019-04-23T18:11:31.327Z,98696.00
2019-04-23T18:14:30.963Z,98690.28
2019-04-23T18:17:13.038Z,98681.89
2019-04-23T18:20:34.824Z,98685.30
2019-04-23T18:23:09.610Z,98687.35
2019-04-23T18:25:54.606Z,98685.28
2019-04-23T18:28:49.907Z,98688.55
2019-04-23T18:31:36.699Z,98700.25
2019-04-23T18:34:43.890Z,98692.83
2019-04-23T18:37:28.081Z,98690.41
2019-04-23T18:40:05.178Z,98694.56
2019-04-23T18:43:08.771Z,98698.55
2019-04-23T18:48:45.065Z,98705.63
2019-04-23T18:51:21.410Z,98701.58
2019-04-23T18:54:15.213Z,98697.89
2019-04-23T18:59:57.124Z,98706.66
2019-04-23T19:06:14.992Z,98712.45
2019-04-23T19:12:30.162Z,98708.42
2019-04-23T19:15:23.514Z,98711.60
2019-04-23T19:18:18.939Z,98711.27
2019-04-23T19:29:52.027Z,98716.90
2019-04-23T19:32:46.710Z,98715.24
2019-04-23T19:35:51.959Z,98712.33
2019-04-23T19:38:21.372Z,98714.24
2019-04-23T19:41:03.819Z,98707.63
2019-04-23T19:43:55.942Z,98717.41
2019-04-23T19:49:32.672Z,98722.07
2019-04-23T19:52:20.350Z,98711.12
2019-04-23T19:55:08.535Z,98707.84
2019-04-23T19:58:04.985Z,98698.89
2019-04-23T20:06:53.985Z,98705.33
2019-04-23T20:12:05.993Z,98707.58
2019-04-23T20:14:58.240Z,98707.90
2019-04-23T20:17:42.624Z,98706.23
2019-04-23T20:20:42.692Z,98702.05
2019-04-23T20:23:52.572Z,98706.84
2019-04-23T20:26:17.153Z,98704.80
2019-04-23T20:33:38.530Z,98700.00
2019-04-23T20:35:26.986Z,98698.58
2019-04-23T20:41:11.878Z,98695.92
2019-04-23T20:44:01.714Z,98693.87
2019-04-23T20:46:52.368Z,98696.00
2019-04-23T20:55:06.754Z,98696.01
2019-04-23T20:58:20.884Z,98693.52
2019-04-23T21:01:23.819Z,98688.80
2019-04-23T21:04:11.689Z,98691.41
2019-04-23T21:06:56.493Z,98688.24
2019-04-23T21:10:01.188Z,98681.36
2019-04-23T21:12:51.006Z,98681.14
2019-04-23T21:18:17.245Z,98685.89
2019-04-23T21:23:51.092Z,98678.37
2019-04-23T21:26:37.219Z,98689.27
2019-04-23T21:29:33.867Z,98684.78
2019-04-23T21:32:14.869Z,98675.30
2019-04-23T21:35:16.826Z,98673.28
2019-04-23T21:37:54.002Z,98676.77
2019-04-23T21:44:05.503Z,98682.56
2019-04-23T21:52:07.968Z,98686.42
2019-04-23T21:57:53.601Z,98672.98
2019-04-23T22:00:41.207Z,98676.64
2019-04-23T22:08:59.157Z,98677.91
2019-04-23T22:11:56.946Z,98672.79
2019-04-23T22:14:33.352Z,98675.33
2019-04-23T22:20:26.039Z,98664.39
2019-04-23T22:23:05.414Z,98669.07
2019-04-23T22:25:56.431Z,98669.69
2019-04-23T22:28:43.436Z,98672.92
2019-04-23T22:31:31.448Z,98668.33
2019-04-23T22:37:09.844Z,98669.13
2019-04-23T22:45:27.058Z,98669.70
2019-04-23T22:48:17.949Z,98675.98
2019-04-23T22:53:50.839Z,98664.18
2019-04-23T22:56:44.011Z,98672.88
2019-04-23T22:59:51.809Z,98666.59
2019-04-23T23:02:44.636Z,98668.55
2019-04-23T23:05:29.412Z,98668.32
2019-04-23T23:08:10.901Z,98667.18
2019-04-23T23:14:09.575Z,98669.94
2019-04-23T23:16:27.839Z,98671.66
2019-04-23T23:19:28.515Z,98674.66
2019-04-23T23:25:05.783Z,98670.67
2019-04-23T23:27:52.137Z,98673.55
2019-04-23T23:30:38.850Z,98680.35
2019-04-23T23:33:24.772Z,98675.97
2019-04-23T23:36:18.025Z,98679.84
2019-04-23T23:42:03.010Z,98667.39
2019-04-23T23:47:19.642Z,98672.17
2019-04-23T23:53:04.279Z,98670.11
2019-04-23T23:56:00.550Z,98674.02
2019-04-23T23:58:53.970Z,98670.86
